createdAt,value
2023-01-28T00:00:38.849Z,243.39
2023-01-28T00:01:42.148Z,120.51
2023-01-28T00:02:45.484Z,100.03
2023-01-28T00:03:48.759Z,84.67
2023-01-28T00:04:52.128Z,71.87
2023-01-28T00:05:55.355Z,76.99
2023-01-28T00:06:58.619Z,76.99
2023-01-28T00:08:02.027Z,71.87
2023-01-28T00:09:05.241Z,59.07
2023-01-28T00:10:08.488Z,61.63
2023-01-28T00:11:11.782Z,53.95
2023-01-28T00:12:15.129Z,51.39
2023-01-28T00:13:17.368Z,46.27
2023-01-28T00:14:20.666Z,76.99
2023-01-28T00:15:22.994Z,48.83
2023-01-28T00:16:26.307Z,38.59
2023-01-28T00:17:29.637Z,53.95
2023-01-28T00:18:32.968Z,46.27
2023-01-28T00:19:36.137Z,41.15
2023-01-28T00:20:38.463Z,82.11
2023-01-28T00:21:40.767Z,171.71
2023-01-28T00:22:44.057Z,46.27
2023-01-28T00:23:47.333Z,82.11
2023-01-28T00:24:50.649Z,59.07
2023-01-28T00:25:53.929Z,66.75
2023-01-28T00:26:57.304Z,66.75
2023-01-28T00:28:01.151Z,59.07
2023-01-28T00:29:04.405Z,51.39
2023-01-28T00:30:07.697Z,64.19
2023-01-28T00:31:11.004Z,46.27
2023-01-28T00:32:14.362Z,59.07
2023-01-28T00:33:17.691Z,56.51
2023-01-28T00:34:21.030Z,46.27
2023-01-28T00:35:23.294Z,36.03
2023-01-28T00:36:26.675Z,48.83
2023-01-28T00:37:29.822Z,76.99
2023-01-28T00:38:33.039Z,12.99
2023-01-28T00:39:36.512Z,20.67
2023-01-28T00:40:39.696Z,18.11
2023-01-28T00:41:42.951Z,53.95
2023-01-28T00:42:45.276Z,5.31
2023-01-28T00:43:47.540Z,12.99
2023-01-28T00:44:49.903Z,2.75
2023-01-28T00:45:52.163Z,7.87
2023-01-28T00:46:55.554Z,56.51
2023-01-28T00:47:58.771Z,-22.86
2023-01-28T00:49:02.140Z,-30.54
2023-01-28T00:50:05.330Z,43.71
2023-01-28T00:51:08.619Z,-2.38
2023-01-28T00:52:11.955Z,5.31
2023-01-28T00:53:15.291Z,12.99
2023-01-28T00:54:18.707Z,2.75
2023-01-28T00:55:21.793Z,-12.62
2023-01-28T00:56:25.096Z,23.23
2023-01-28T00:57:28.392Z,12.99
2023-01-28T00:58:31.661Z,0
2023-01-28T00:59:33.968Z,33.47
2023-01-28T01:00:37.277Z,53.95
2023-01-28T01:01:40.549Z,64.19
2023-01-28T01:02:43.868Z,82.11
2023-01-28T01:03:47.190Z,76.99
2023-01-28T01:04:50.439Z,76.99
2023-01-28T01:05:53.745Z,100.03
2023-01-28T01:06:56.143Z,158.91
2023-01-28T01:07:58.348Z,171.71
2023-01-28T01:09:01.711Z,235.71
2023-01-28T01:10:04.180Z,158.91
2023-01-28T01:11:06.472Z,138.43
2023-01-28T01:12:09.749Z,184.51
2023-01-28T01:13:13.096Z,210.11
2023-01-28T01:14:16.385Z,204.99
2023-01-28T01:15:19.831Z,228.03
2023-01-28T01:16:23.066Z,235.71
2023-01-28T01:17:26.374Z,240.83
2023-01-28T01:18:29.529Z,207.55
2023-01-28T01:19:32.816Z,192.19
2023-01-28T01:20:36.109Z,166.59
2023-01-28T01:21:39.409Z,125.63
2023-01-28T01:22:42.678Z,41.15
2023-01-28T01:23:45.965Z,110.27
2023-01-28T01:24:48.276Z,115.39
2023-01-28T01:25:51.668Z,5.31
2023-01-28T01:26:54.877Z,74.43
2023-01-28T01:27:58.160Z,12.99
2023-01-28T01:29:01.512Z,46.27
2023-01-28T01:30:04.761Z,-10.06
2023-01-28T01:31:08.043Z,48.83
2023-01-28T01:32:10.483Z,-2.38
2023-01-28T01:33:12.643Z,33.47
2023-01-28T01:34:16.039Z,12.99
2023-01-28T01:35:18.410Z,-15.18
2023-01-28T01:36:20.625Z,-61.26
2023-01-28T01:37:23.892Z,-56.14
2023-01-28T01:38:27.133Z,-71.5
2023-01-28T01:39:30.429Z,18.11
2023-01-28T01:40:33.718Z,-38.22
2023-01-28T01:41:37.063Z,-58.7
2023-01-28T01:42:40.379Z,-76.62
2023-01-28T01:43:43.609Z,12.99
2023-01-28T01:44:46.942Z,-74.06
2023-01-28T01:45:50.204Z,-74.06
2023-01-28T01:46:53.606Z,-45.9
2023-01-28T01:47:56.773Z,-38.22
2023-01-28T01:49:00.106Z,-71.5
2023-01-28T01:50:02.357Z,-79.18
2023-01-28T01:51:05.664Z,-74.06
2023-01-28T01:52:08.989Z,-20.3
2023-01-28T01:53:12.338Z,-71.5
2023-01-28T01:54:15.601Z,97.47
2023-01-28T01:55:18.970Z,-40.78
2023-01-28T01:56:22.201Z,84.67
2023-01-28T01:57:24.462Z,-30.54
2023-01-28T01:58:26.742Z,-43.34
2023-01-28T01:59:29.136Z,-61.26
2023-01-28T02:00:31.349Z,-43.34
2023-01-28T02:01:34.698Z,-127.8
2023-01-28T02:02:37.952Z,-12.62
2023-01-28T02:03:41.282Z,-61.26
2023-01-28T02:04:44.572Z,-20.3
2023-01-28T02:05:47.928Z,20.67
2023-01-28T02:06:51.190Z,-68.94
2023-01-28T02:07:54.408Z,-43.34
2023-01-28T02:08:57.691Z,-81.74
2023-01-28T02:10:01.413Z,-56.14
2023-01-28T02:11:04.661Z,-15.18
2023-01-28T02:12:07.987Z,-74.06
2023-01-28T02:13:11.252Z,-76.62
2023-01-28T02:14:13.532Z,10.43
2023-01-28T02:15:16.994Z,5.31
2023-01-28T02:16:20.130Z,2.75
2023-01-28T02:17:23.439Z,12.99
2023-01-28T02:18:26.707Z,-20.3
2023-01-28T02:19:29.996Z,-127.82
2023-01-28T02:20:33.294Z,-125.26
2023-01-28T02:21:35.687Z,-51.02
2023-01-28T02:22:37.984Z,-120.14
2023-01-28T02:23:40.237Z,-125.26
2023-01-28T02:24:42.583Z,-145.74
2023-01-28T02:25:45.982Z,-132.94
2023-01-28T02:26:49.109Z,-115.02
2023-01-28T02:27:52.425Z,-125.26
2023-01-28T02:28:55.701Z,-107.34
2023-01-28T02:29:59.096Z,-130.38
2023-01-28T02:31:02.431Z,-61.26
2023-01-28T02:32:05.589Z,-97.1
2023-01-28T02:33:08.963Z,-71.5
2023-01-28T02:34:12.175Z,-107.34
2023-01-28T02:35:15.443Z,-112.46
2023-01-28T02:36:18.926Z,-99.66
2023-01-28T02:37:22.062Z,-120.14
2023-01-28T02:38:24.350Z,-43.34
2023-01-28T02:39:27.649Z,-130.38
2023-01-28T02:40:30.942Z,-125.26
2023-01-28T02:41:34.224Z,-122.7
2023-01-28T02:42:37.513Z,-48.46
2023-01-28T02:43:40.815Z,-89.42
2023-01-28T02:44:44.128Z,-127.82
2023-01-28T02:45:46.475Z,-91.98
2023-01-28T02:46:48.818Z,-102.22
2023-01-28T02:47:52.018Z,-130.38
2023-01-28T02:48:55.348Z,-104.78
2023-01-28T02:49:58.694Z,-99.66
2023-01-28T02:51:01.974Z,-109.9
2023-01-28T02:52:05.209Z,-107.34
2023-01-28T02:53:08.465Z,-99.66
2023-01-28T02:54:11.764Z,-94.54
2023-01-28T02:55:15.056Z,-97.1
2023-01-28T02:56:18.379Z,-76.62
2023-01-28T02:57:21.723Z,-89.42
2023-01-28T02:58:24.940Z,-68.94
2023-01-28T02:59:28.226Z,-51.02
2023-01-28T03:00:30.543Z,-66.38
2023-01-28T03:01:33.819Z,-58.7
2023-01-28T03:02:37.124Z,-25.42
2023-01-28T03:03:40.395Z,-58.7
2023-01-28T03:04:43.690Z,-38.22
2023-01-28T03:05:47.005Z,-58.7
2023-01-28T03:06:50.319Z,-61.26
2023-01-28T03:07:52.653Z,0
2023-01-28T03:08:54.999Z,-74.06
2023-01-28T03:09:57.223Z,-61.26
2023-01-28T03:10:59.513Z,-61.26
2023-01-28T03:12:01.889Z,-61.26
2023-01-28T03:13:04.466Z,-71.5
2023-01-28T03:14:07.769Z,-86.86
2023-01-28T03:15:11.204Z,-61.26
2023-01-28T03:16:14.361Z,-71.5
2023-01-28T03:17:17.656Z,-66.38
2023-01-28T03:18:20.960Z,-74.06
2023-01-28T03:19:24.232Z,-94.54
2023-01-28T03:20:27.591Z,-99.66
2023-01-28T03:21:30.808Z,-91.98
2023-01-28T03:22:34.108Z,-79.18
2023-01-28T03:23:37.467Z,-91.98
2023-01-28T03:24:40.758Z,-81.74
2023-01-28T03:25:43.977Z,-84.3
2023-01-28T03:26:46.457Z,-91.98
2023-01-28T03:27:49.743Z,-97.1
2023-01-28T03:28:52.872Z,-79.18
2023-01-28T03:29:56.238Z,-63.82
2023-01-28T03:30:59.464Z,-102.22
2023-01-28T03:32:02.834Z,-104.78
2023-01-28T03:33:06.059Z,-104.78
2023-01-28T03:34:08.435Z,-68.94
2023-01-28T03:35:10.866Z,-115.02
2023-01-28T03:36:13.138Z,-122.7
2023-01-28T03:37:15.353Z,-127.82
2023-01-28T03:38:18.603Z,-91.98
2023-01-28T03:39:21.911Z,-107.34
2023-01-28T03:40:25.146Z,-43.34
2023-01-28T03:41:28.438Z,-58.7
2023-01-28T03:42:31.735Z,-22.86
2023-01-28T03:43:35.041Z,-53.58
2023-01-28T03:44:38.317Z,-66.38
2023-01-28T03:45:41.698Z,-81.74
2023-01-28T03:46:43.986Z,-51.02
2023-01-28T03:47:47.229Z,-71.5
2023-01-28T03:48:50.509Z,-40.78
2023-01-28T03:49:53.798Z,0.19
2023-01-28T03:50:57.106Z,-74.06
2023-01-28T03:52:00.414Z,-94.54
2023-01-28T03:53:03.693Z,-89.42
2023-01-28T03:54:07.688Z,-68.94
2023-01-28T03:55:11.182Z,-107.34
2023-01-28T03:56:14.310Z,-109.9
2023-01-28T03:57:17.587Z,-97.1
2023-01-28T03:58:19.924Z,-132.94
2023-01-28T03:59:22.195Z,-74.06
2023-01-28T04:00:24.558Z,-109.9
2023-01-28T04:01:26.802Z,-86.86
2023-01-28T04:02:30.105Z,-45.9
2023-01-28T04:03:33.387Z,-153.42
2023-01-28T04:04:36.697Z,-104.78
2023-01-28T04:05:40.018Z,164.03
2023-01-28T04:06:43.274Z,56.51
2023-01-28T04:07:46.593Z,-71.5
2023-01-28T04:08:49.902Z,-107.34
2023-01-28T04:09:53.156Z,-68.94
2023-01-28T04:10:56.456Z,82.11
2023-01-28T04:11:59.737Z,-117.58
2023-01-28T04:13:03.025Z,-145.74
2023-01-28T04:14:06.369Z,-109.9
2023-01-28T04:15:08.744Z,-143.18
2023-01-28T04:16:11.939Z,-158.54
2023-01-28T04:17:15.326Z,-143.18
2023-01-28T04:18:18.529Z,-89.42
2023-01-28T04:19:21.798Z,-79.18
2023-01-28T04:20:25.103Z,-130.38
2023-01-28T04:21:28.386Z,-38.22
2023-01-28T04:22:30.783Z,-138.06
2023-01-28T04:23:33.020Z,-99.66
2023-01-28T04:24:36.299Z,-150.86
2023-01-28T04:25:39.681Z,-125.26
2023-01-28T04:26:41.936Z,-145.74
2023-01-28T04:27:44.211Z,-153.42
2023-01-28T04:28:47.503Z,-76.62
2023-01-28T04:29:50.778Z,-143.18
2023-01-28T04:30:54.237Z,-107.34
2023-01-28T04:31:57.442Z,-84.3
2023-01-28T04:33:00.665Z,-117.58
2023-01-28T04:34:03.986Z,-112.46
2023-01-28T04:35:08.101Z,-25.42
2023-01-28T04:36:11.305Z,-71.5
2023-01-28T04:37:14.645Z,-45.9
2023-01-28T04:38:17.925Z,-102.22
2023-01-28T04:39:21.210Z,-122.7
2023-01-28T04:40:24.436Z,-130.38
2023-01-28T04:41:26.748Z,-104.78
2023-01-28T04:42:30.027Z,-107.34
2023-01-28T04:43:33.317Z,-120.14
2023-01-28T04:44:36.674Z,-107.34
2023-01-28T04:45:39.942Z,-91.98
2023-01-28T04:46:43.207Z,-112.46
2023-01-28T04:47:46.530Z,-112.46
2023-01-28T04:48:48.953Z,33.47
2023-01-28T04:49:51.592Z,-30.54
2023-01-28T04:50:53.569Z,-97.1
2023-01-28T04:51:55.802Z,-56.14
2023-01-28T04:52:59.061Z,-94.54
2023-01-28T04:54:02.394Z,-91.98
2023-01-28T04:55:05.864Z,-53.58
2023-01-28T04:56:08.910Z,-102.22
2023-01-28T04:57:12.208Z,-71.5
2023-01-28T04:58:15.480Z,-89.42
2023-01-28T04:59:18.831Z,-94.54
2023-01-28T05:00:22.109Z,-94.54
2023-01-28T05:01:25.366Z,-89.42
2023-01-28T05:02:28.649Z,-115.02
2023-01-28T05:03:31.973Z,-66.38
2023-01-28T05:04:35.344Z,-104.78
2023-01-28T05:05:37.646Z,-109.9
2023-01-28T05:06:40.831Z,-104.78
2023-01-28T05:07:44.122Z,-117.58
2023-01-28T05:08:47.452Z,-63.82
2023-01-28T05:09:50.714Z,-122.7
2023-01-28T05:10:53.990Z,-74.06
2023-01-28T05:11:57.288Z,-99.66
2023-01-28T05:12:59.613Z,-120.14
2023-01-28T05:14:02.924Z,-115.02
2023-01-28T05:15:05.339Z,0
2023-01-28T05:16:07.516Z,-84.3
2023-01-28T05:17:10.877Z,-4.94
2023-01-28T05:18:14.096Z,-66.38
2023-01-28T05:19:17.390Z,-153.42
2023-01-28T05:20:20.689Z,0
2023-01-28T05:21:23.974Z,-68.94
2023-01-28T05:22:27.585Z,-38.22
2023-01-28T05:23:30.640Z,-66.38
2023-01-28T05:24:34.047Z,-148.3
2023-01-28T05:25:37.321Z,-173.9
2023-01-28T05:26:40.485Z,-173.9
2023-01-28T05:27:43.737Z,-173.9
2023-01-28T05:28:47.024Z,-148.3
2023-01-28T05:29:49.335Z,-168.78
2023-01-28T05:30:52.742Z,-148.3
2023-01-28T05:31:56.039Z,-158.54
2023-01-28T05:32:59.241Z,-158.54
2023-01-28T05:34:02.497Z,-158.54
2023-01-28T05:35:05.907Z,-148.3
2023-01-28T05:36:09.256Z,-179.02
2023-01-28T05:37:11.461Z,-184.14
2023-01-28T05:38:13.721Z,-161.1
2023-01-28T05:39:16.134Z,-45.9
2023-01-28T05:40:18.312Z,-97.1
2023-01-28T05:41:21.655Z,-107.34
2023-01-28T05:42:24.896Z,-140.62
2023-01-28T05:43:28.247Z,-115.02
2023-01-28T05:44:31.493Z,-168.78
2023-01-28T05:45:34.903Z,-150.86
2023-01-28T05:46:38.079Z,-148.3
2023-01-28T05:47:41.373Z,-158.54
2023-01-28T05:48:44.674Z,-143.18
2023-01-28T05:49:47.968Z,-155.98
2023-01-28T05:50:51.246Z,-163.66
2023-01-28T05:51:54.556Z,-171.34
2023-01-28T05:52:57.840Z,-135.5
2023-01-28T05:54:00.179Z,-127.82
2023-01-28T05:55:03.417Z,-166.22
2023-01-28T05:56:06.794Z,-150.86
2023-01-28T05:57:10.081Z,-127.82
2023-01-28T05:58:13.305Z,-104.78
2023-01-28T05:59:16.596Z,-140.62
2023-01-28T06:00:20.021Z,-158.54
2023-01-28T06:01:22.315Z,-148.3
2023-01-28T06:02:24.520Z,-176.46
2023-01-28T06:03:26.828Z,-148.3
2023-01-28T06:04:29.132Z,156.35
2023-01-28T06:05:32.445Z,61.63
2023-01-28T06:06:35.715Z,-145.74
2023-01-28T06:07:38.998Z,-140.62
2023-01-28T06:08:42.296Z,-189.26
2023-01-28T06:09:45.607Z,-120.14
2023-01-28T06:10:48.878Z,-163.66
2023-01-28T06:11:52.171Z,-143.18
2023-01-28T06:12:55.470Z,-135.5
2023-01-28T06:13:58.835Z,-148.3
2023-01-28T06:15:02.325Z,-135.5
2023-01-28T06:16:05.547Z,-176.46
2023-01-28T06:17:08.843Z,-150.86
2023-01-28T06:18:11.141Z,-138.06
2023-01-28T06:19:14.466Z,-135.5
2023-01-28T06:20:17.735Z,-109.9
2023-01-28T06:21:21.043Z,-143.18
2023-01-28T06:22:24.572Z,-158.54
2023-01-28T06:23:27.615Z,-104.78
2023-01-28T06:24:30.909Z,-143.18
2023-01-28T06:25:33.251Z,-140.62
2023-01-28T06:26:35.517Z,-74.06
2023-01-28T06:27:38.876Z,-81.74
2023-01-28T06:28:41.131Z,-163.66
2023-01-28T06:29:43.436Z,-94.54
2023-01-28T06:30:46.833Z,-140.62
2023-01-28T06:31:50.018Z,-163.66
2023-01-28T06:32:53.307Z,-132.94
2023-01-28T06:33:56.688Z,-179.02
2023-01-28T06:34:59.899Z,-189.26
2023-01-28T06:36:03.231Z,-163.66
2023-01-28T06:37:06.491Z,-150.86
2023-01-28T06:38:09.768Z,-138.06
2023-01-28T06:39:13.143Z,-150.86
2023-01-28T06:40:16.553Z,-150.86
2023-01-28T06:41:19.685Z,-99.66
2023-01-28T06:42:22.923Z,-138.06
2023-01-28T06:43:25.268Z,-145.74
2023-01-28T06:44:28.633Z,-45.9
2023-01-28T06:45:31.850Z,-158.54
2023-01-28T06:46:35.171Z,-168.78
2023-01-28T06:47:38.430Z,-58.7
2023-01-28T06:48:41.721Z,-150.86
2023-01-28T06:49:45.005Z,-140.62
2023-01-28T06:50:47.478Z,-132.94
2023-01-28T06:51:49.611Z,-171.34
2023-01-28T06:52:51.940Z,-145.74
2023-01-28T06:53:54.228Z,-196.94
2023-01-28T06:54:57.648Z,-163.66
2023-01-28T06:56:00.874Z,-173.9
2023-01-28T06:57:04.209Z,-176.46
2023-01-28T06:58:07.410Z,-176.46
2023-01-28T06:59:10.800Z,-194.38
2023-01-28T07:00:14.282Z,-194.38
2023-01-28T07:01:17.408Z,-171.34
2023-01-28T07:02:20.602Z,-150.86
2023-01-28T07:03:23.863Z,-176.46
2023-01-28T07:04:27.237Z,-202.06
2023-01-28T07:05:30.533Z,-158.54
2023-01-28T07:06:33.734Z,-181.58
2023-01-28T07:07:36.038Z,-181.58
2023-01-28T07:08:39.409Z,-166.22
2023-01-28T07:09:42.658Z,-184.14
2023-01-28T07:10:46.100Z,-181.58
2023-01-28T07:11:49.271Z,-176.46
2023-01-28T07:12:52.532Z,-171.34
2023-01-28T07:13:55.794Z,-112.46
2023-01-28T07:14:58.125Z,-158.54
2023-01-28T07:16:00.506Z,-140.62
2023-01-28T07:17:02.732Z,-158.54
2023-01-28T07:18:05.468Z,-158.54
2023-01-28T07:19:08.798Z,-158.54
2023-01-28T07:20:12.138Z,-138.06
2023-01-28T07:21:15.276Z,-161.1
2023-01-28T07:22:18.603Z,-148.3
2023-01-28T07:23:21.953Z,-148.3
2023-01-28T07:24:25.175Z,0
2023-01-28T07:25:28.441Z,-94.54
2023-01-28T07:26:31.790Z,-140.62
2023-01-28T07:27:35.047Z,-130.38
2023-01-28T07:28:38.339Z,-130.38
2023-01-28T07:29:41.619Z,-104.78
2023-01-28T07:30:44.917Z,-138.06
2023-01-28T07:31:47.324Z,-102.22
2023-01-28T07:32:50.660Z,-135.5
2023-01-28T07:33:53.794Z,36.03
2023-01-28T07:34:57.100Z,-150.86
2023-01-28T07:36:00.403Z,-51.02
2023-01-28T07:37:03.699Z,-150.86
2023-01-28T07:38:07.022Z,-68.94
2023-01-28T07:39:09.284Z,-166.22
2023-01-28T07:40:11.718Z,-209.74
2023-01-28T07:41:13.972Z,-191.82
2023-01-28T07:42:16.211Z,-196.94
2023-01-28T07:43:19.580Z,-196.94
2023-01-28T07:44:22.827Z,-163.66
2023-01-28T07:45:26.190Z,-168.78
2023-01-28T07:46:29.382Z,-168.78
2023-01-28T07:47:32.660Z,-161.1
2023-01-28T07:48:35.990Z,-143.18
2023-01-28T07:49:39.246Z,-163.66
2023-01-28T07:50:42.742Z,-148.3
2023-01-28T07:51:45.877Z,-173.9
2023-01-28T07:52:49.137Z,-158.54
2023-01-28T07:53:52.418Z,-150.86
2023-01-28T07:54:55.729Z,-161.1
2023-01-28T07:55:58.053Z,-155.98
2023-01-28T07:57:01.324Z,-138.06
2023-01-28T07:58:04.691Z,-184.14
2023-01-28T07:59:08.581Z,-166.22
2023-01-28T08:00:12.018Z,-132.94
2023-01-28T08:01:15.266Z,-173.9
2023-01-28T08:02:18.445Z,-104.78
2023-01-28T08:03:21.017Z,-155.98
2023-01-28T08:04:23.104Z,-161.1
2023-01-28T08:05:26.464Z,-199.5
2023-01-28T08:06:29.774Z,-181.58
2023-01-28T08:07:33.005Z,-189.26
2023-01-28T08:08:36.331Z,-171.34
2023-01-28T08:09:39.543Z,-194.38
2023-01-28T08:10:42.939Z,-179.02
2023-01-28T08:11:46.296Z,-186.7
2023-01-28T08:12:49.410Z,-179.02
2023-01-28T08:13:52.699Z,-186.7
2023-01-28T08:14:56.014Z,-168.78
2023-01-28T08:15:59.292Z,-166.22
2023-01-28T08:17:02.659Z,-140.62
2023-01-28T08:18:05.772Z,-161.1
2023-01-28T08:19:09.079Z,-48.46
2023-01-28T08:20:12.351Z,-143.18
2023-01-28T08:21:15.633Z,-120.14
2023-01-28T08:22:18.994Z,-163.66
2023-01-28T08:23:22.189Z,-186.7
2023-01-28T08:24:25.411Z,-161.1
2023-01-28T08:25:27.730Z,-173.9
2023-01-28T08:26:30.007Z,-140.62
2023-01-28T08:27:33.316Z,41.35
2023-01-28T08:28:36.612Z,-181.58
2023-01-28T08:29:39.963Z,-168.78
2023-01-28T08:30:43.272Z,-171.34
2023-01-28T08:31:46.494Z,-161.1
2023-01-28T08:32:49.764Z,-176.46
2023-01-28T08:33:53.164Z,-153.42
2023-01-28T08:34:56.412Z,-132.94
2023-01-28T08:35:59.631Z,-179.02
2023-01-28T08:37:03.053Z,-199.5
2023-01-28T08:38:06.230Z,-184.14
2023-01-28T08:39:09.536Z,-127.82
2023-01-28T08:40:11.949Z,-125.26
2023-01-28T08:41:15.191Z,-112.46
2023-01-28T08:42:18.506Z,-148.3
2023-01-28T08:43:21.800Z,-68.94
2023-01-28T08:44:25.030Z,-163.66
2023-01-28T08:45:28.301Z,-179.02
2023-01-28T08:46:31.656Z,-155.98
2023-01-28T08:47:33.922Z,-191.82
2023-01-28T08:48:36.302Z,-181.58
2023-01-28T08:49:38.624Z,-186.7
2023-01-28T08:50:40.922Z,-117.58
2023-01-28T08:51:43.304Z,-163.66
2023-01-28T08:52:45.427Z,-199.5
2023-01-28T08:53:48.806Z,-214.86
2023-01-28T08:54:52.034Z,-140.62
2023-01-28T08:55:55.336Z,-199.5
2023-01-28T08:56:58.618Z,-217.42
2023-01-28T08:58:02.000Z,-199.5
2023-01-28T08:59:05.787Z,-138.06
2023-01-28T09:00:09.144Z,-171.34
2023-01-28T09:01:12.473Z,-207.18
2023-01-28T09:02:15.606Z,-181.58
2023-01-28T09:03:19.021Z,-191.82
2023-01-28T09:04:22.205Z,-22.86
2023-01-28T09:05:25.477Z,-196.94
2023-01-28T09:06:27.868Z,-171.34
2023-01-28T09:07:31.187Z,-227.66
2023-01-28T09:08:34.444Z,-209.74
2023-01-28T09:09:37.743Z,-196.94
2023-01-28T09:10:41.104Z,-161.1
2023-01-28T09:11:44.323Z,-140.62
2023-01-28T09:12:47.568Z,-99.66
2023-01-28T09:13:49.907Z,-194.38
2023-01-28T09:14:52.184Z,-135.5
2023-01-28T09:15:54.484Z,-132.94
2023-01-28T09:16:56.778Z,-143.18
2023-01-28T09:18:00.135Z,-99.66
2023-01-28T09:19:03.433Z,-135.5
2023-01-28T09:20:06.766Z,-161.1
2023-01-28T09:21:10.108Z,-115.02
2023-01-28T09:22:13.253Z,-122.7
2023-01-28T09:23:16.524Z,-145.74
2023-01-28T09:24:19.831Z,-145.74
2023-01-28T09:25:23.119Z,-117.58
2023-01-28T09:26:26.419Z,-189.26
2023-01-28T09:28:33.109Z,-191.82
2023-01-28T09:29:36.339Z,-191.82
2023-01-28T09:30:38.730Z,-196.94
2023-01-28T09:31:41.919Z,-214.86
2023-01-28T09:32:45.186Z,-171.34
2023-01-28T09:33:48.481Z,-219.98
2023-01-28T09:34:51.789Z,-184.14
2023-01-28T09:35:55.094Z,-130.38
2023-01-28T09:36:58.359Z,-186.7
2023-01-28T09:38:01.698Z,-214.86
2023-01-28T09:39:03.943Z,-222.54
2023-01-28T09:40:06.363Z,-237.9
2023-01-28T09:41:09.639Z,-219.98
2023-01-28T09:42:12.976Z,-222.54
2023-01-28T09:43:15.159Z,-219.98
2023-01-28T09:44:17.613Z,-212.3
2023-01-28T09:45:20.795Z,-217.42
2023-01-28T09:46:24.165Z,-232.78
2023-01-28T09:47:27.350Z,-225.1
2023-01-28T09:48:30.699Z,-217.42
2023-01-28T09:49:33.978Z,-219.98
2023-01-28T09:50:37.243Z,-207.18
2023-01-28T09:51:40.575Z,-194.38
2023-01-28T09:52:43.817Z,-202.06
2023-01-28T09:53:47.142Z,-219.98
2023-01-28T09:54:50.383Z,-209.74
2023-01-28T09:55:53.679Z,-237.9
2023-01-28T09:56:56.981Z,-209.74
2023-01-28T09:57:59.308Z,-196.94
2023-01-28T09:59:03.204Z,-191.82
2023-01-28T10:00:06.612Z,-237.9
2023-01-28T10:01:09.815Z,-227.66
2023-01-28T10:02:13.096Z,-199.5
2023-01-28T10:03:16.497Z,-179.02
2023-01-28T10:04:19.676Z,-189.26
2023-01-28T10:05:21.983Z,-196.94
2023-01-28T10:06:24.286Z,-202.06
2023-01-28T10:07:26.753Z,-173.9
2023-01-28T10:08:28.913Z,-184.14
2023-01-28T10:09:32.208Z,-166.22
2023-01-28T10:10:35.634Z,-132.94
2023-01-28T10:11:38.840Z,-155.98
2023-01-28T10:12:42.090Z,-189.26
2023-01-28T10:13:45.366Z,-143.18
2023-01-28T10:14:48.670Z,-150.86
2023-01-28T10:15:51.974Z,-181.58
2023-01-28T10:16:55.266Z,-171.34
2023-01-28T10:17:58.555Z,-138.06
2023-01-28T10:19:01.927Z,-150.86
2023-01-28T10:20:05.330Z,-166.22
2023-01-28T10:21:09.113Z,-2.38
2023-01-28T10:22:11.549Z,56.51
2023-01-28T10:23:14.807Z,30.91
2023-01-28T10:24:18.030Z,38.59
2023-01-28T10:25:21.293Z,158.91
2023-01-28T10:26:24.653Z,82.11
2023-01-28T10:27:27.894Z,66.75
2023-01-28T10:28:31.182Z,33.47
2023-01-28T10:29:33.585Z,-15.18
2023-01-28T10:30:35.897Z,-53.58
2023-01-28T10:31:39.091Z,-7.5
2023-01-28T10:32:42.389Z,-79.18
2023-01-28T10:33:45.696Z,-68.94
2023-01-28T10:34:49.051Z,-130.38
2023-01-28T10:35:52.278Z,-184.14
2023-01-28T10:36:55.521Z,10.43
2023-01-28T10:37:58.903Z,-109.9
2023-01-28T10:39:02.176Z,-186.7
2023-01-28T10:40:06.287Z,-202.06
2023-01-28T10:41:09.518Z,-186.7
2023-01-28T10:42:12.827Z,-243.02
2023-01-28T10:43:16.014Z,-209.74
2023-01-28T10:44:18.324Z,-225.1
2023-01-28T10:45:21.628Z,-207.18
2023-01-28T10:46:24.897Z,-145.74
2023-01-28T10:47:28.247Z,-225.1
2023-01-28T10:48:31.522Z,46.27
2023-01-28T10:49:33.818Z,84.67
2023-01-28T10:50:37.277Z,135.87
2023-01-28T10:51:39.480Z,41.15
2023-01-28T10:52:41.702Z,33.47
2023-01-28T10:53:44.068Z,2.75
2023-01-28T10:54:46.521Z,143.55
2023-01-28T10:55:48.759Z,105.15
2023-01-28T10:56:50.940Z,97.47
2023-01-28T10:57:54.243Z,117.95
2023-01-28T10:58:57.617Z,158.91
2023-01-28T11:00:00.832Z,238.27
2023-01-28T11:01:04.181Z,110.27
2023-01-28T11:02:07.570Z,74.43
2023-01-28T11:03:10.726Z,292.03
2023-01-28T11:04:14.003Z,256.19
2023-01-28T11:05:17.412Z,325.31
2023-01-28T11:06:20.607Z,248.51
2023-01-28T11:07:23.965Z,238.27
2023-01-28T11:08:27.298Z,146.11
2023-01-28T11:09:30.501Z,251.07
2023-01-28T11:10:32.876Z,138.43
2023-01-28T11:11:36.075Z,128.19
2023-01-28T11:12:39.432Z,112.83
2023-01-28T11:13:42.849Z,107.71
2023-01-28T11:14:46.137Z,117.95
2023-01-28T11:15:49.405Z,123.07
2023-01-28T11:16:52.682Z,279.23
2023-01-28T11:17:54.985Z,-235.33
2023-01-28T11:18:57.158Z,-189.25
2023-01-28T11:19:59.640Z,-125.25
2023-01-28T11:21:01.959Z,-104.77
2023-01-28T11:22:05.244Z,-109.89
2023-01-28T11:23:08.456Z,-89.41
2023-01-28T11:24:11.848Z,-91.97
2023-01-28T11:25:14.975Z,-109.89
2023-01-28T11:26:18.366Z,-117.57
2023-01-28T11:27:21.704Z,-112.45
2023-01-28T11:28:24.966Z,-140.61
2023-01-28T11:29:28.310Z,0
2023-01-28T11:30:31.627Z,-189.25
2023-01-28T11:31:34.868Z,-184.13
2023-01-28T11:32:38.197Z,-281.41
2023-01-28T11:33:41.556Z,-189.25
2023-01-28T11:34:43.760Z,-291.65
2023-01-28T11:35:47.046Z,-319.81
2023-01-28T11:36:50.255Z,-217.41
2023-01-28T11:37:53.585Z,138.43
2023-01-28T11:38:56.812Z,245.95
2023-01-28T11:40:00.287Z,-163.65
2023-01-28T11:41:03.479Z,-202.05
2023-01-28T11:42:06.930Z,-115.01
2023-01-28T11:43:09.125Z,-138.05
2023-01-28T11:44:11.416Z,-130.37
2023-01-28T11:45:13.739Z,-76.61
2023-01-28T11:46:17.029Z,-76.61
2023-01-28T11:47:20.372Z,-40.77
2023-01-28T11:48:23.710Z,-2.37
2023-01-28T11:49:26.956Z,-7.49
2023-01-28T11:50:30.256Z,-150.85
2023-01-28T11:51:33.489Z,-222.53
2023-01-28T11:52:36.786Z,-312.13
2023-01-28T11:53:40.148Z,-271.17
2023-01-28T11:54:43.373Z,-281.41
2023-01-28T11:55:46.659Z,-132.93
2023-01-28T11:56:49.964Z,-227.65
2023-01-28T11:57:53.235Z,-299.33
2023-01-28T11:58:55.540Z,-266.05
2023-01-28T11:59:58.840Z,-263.49
2023-01-28T12:01:02.135Z,41.35
2023-01-28T12:02:05.428Z,-263.49
2023-01-28T12:03:09.371Z,-225.09
2023-01-28T12:04:12.701Z,-168.77
2023-01-28T12:05:15.968Z,-232.77
2023-01-28T12:06:18.275Z,-120.13
2023-01-28T12:07:20.596Z,-109.89
2023-01-28T12:08:23.882Z,-184.13
2023-01-28T12:09:27.317Z,-145.73
2023-01-28T12:10:29.602Z,-53.57
2023-01-28T12:11:32.904Z,-138.05
2023-01-28T12:12:36.197Z,-43.33
2023-01-28T12:13:39.498Z,-30.53
2023-01-28T12:14:42.782Z,-130.37
2023-01-28T12:15:46.072Z,-48.45
2023-01-28T12:16:49.363Z,20.68
2023-01-28T12:17:52.663Z,-89.41
2023-01-28T12:18:55.962Z,-20.29
2023-01-28T12:19:59.240Z,-25.41
2023-01-28T12:21:02.533Z,-7.49
2023-01-28T12:22:06.405Z,-79.17
2023-01-28T12:23:09.705Z,-153.41
2023-01-28T12:24:12.014Z,-99.65
2023-01-28T12:25:15.304Z,-86.85
2023-01-28T12:26:18.610Z,-58.69
2023-01-28T12:27:21.887Z,-76.61
2023-01-28T12:28:25.184Z,-76.61
2023-01-28T12:29:28.481Z,-155.97
2023-01-28T12:30:31.768Z,-138.05
2023-01-28T12:31:34.080Z,-94.53
2023-01-28T12:32:36.398Z,-40.77
2023-01-28T12:33:38.718Z,-143.17
2023-01-28T12:34:41.033Z,-81.73
2023-01-28T12:35:44.311Z,15.56
2023-01-28T12:36:47.600Z,-202.05
2023-01-28T12:37:50.914Z,-38.21
2023-01-28T12:38:54.191Z,-166.21
2023-01-28T12:39:57.463Z,-283.97
2023-01-28T12:41:00.758Z,302.27
2023-01-28T12:42:04.049Z,28.35
2023-01-28T12:43:07.350Z,312.5
2023-01-28T12:44:10.657Z,-194.38
2023-01-28T12:45:13.925Z,-99.66
2023-01-28T12:46:17.227Z,-7.5
2023-01-28T12:47:20.535Z,69.31
2023-01-28T12:48:22.831Z,-56.14
2023-01-28T12:49:26.111Z,-2.38
2023-01-28T12:50:29.410Z,102.59
2023-01-28T12:51:32.697Z,166.59
2023-01-28T12:52:35.999Z,76.99
2023-01-28T12:53:39.293Z,179.39
2023-01-28T12:54:42.567Z,307.39
2023-01-28T12:55:44.880Z,245.95
2023-01-28T12:56:47.199Z,268.99
2023-01-28T12:57:49.505Z,251.07
2023-01-28T12:58:51.803Z,256.19
2023-01-28T12:59:55.093Z,315.07
2023-01-28T13:00:58.394Z,302.27
2023-01-28T13:02:01.668Z,304.83
2023-01-28T13:03:04.973Z,-327.49
2023-01-28T13:04:08.275Z,-314.69